createdAt,value
2022-12-23T00:00:45.072Z,2.10
2022-12-23T00:03:12.348Z,2.03
2022-12-23T00:10:37.771Z,1.73
2022-12-23T00:13:23.381Z,2.58
2022-12-23T00:15:50.182Z,2.28
2022-12-23T00:18:17.055Z,1.83
2022-12-23T00:20:43.821Z,2.58
2022-12-23T00:23:10.753Z,2.35
2022-12-23T00:25:44.668Z,1.88
2022-12-23T00:28:16.831Z,2.10
2022-12-23T00:30:51.079Z,2.85
2022-12-23T00:33:20.786Z,2.45
2022-12-23T00:35:47.788Z,1.95
2022-12-23T00:38:15.316Z,2.35
2022-12-23T00:43:28.016Z,2.10
2022-12-23T00:45:54.965Z,2.35
2022-12-23T00:48:40.179Z,2.60
2022-12-23T00:51:06.938Z,2.45
2022-12-23T00:53:33.855Z,2.85
2022-12-23T00:56:00.627Z,2.38
2022-12-23T00:58:27.660Z,2.53
2022-12-23T01:01:13.206Z,2.08
2022-12-23T01:03:58.609Z,2.33
2022-12-23T01:06:25.359Z,1.90
2022-12-23T01:08:52.104Z,2.70
2022-12-23T01:11:18.957Z,2.38
2022-12-23T01:13:45.713Z,2.28
2022-12-23T01:16:17.306Z,2.47
2022-12-23T01:18:44.987Z,2.28
2022-12-23T01:21:12.038Z,2.33
2022-12-23T01:23:39.098Z,2.75
2022-12-23T01:26:07.271Z,2.55
2022-12-23T01:28:35.830Z,2.35
2022-12-23T01:31:04.328Z,2.20
2022-12-23T01:33:33.592Z,2.50
2022-12-23T01:36:06.244Z,2.15
2022-12-23T01:38:34.142Z,2.72
2022-12-23T01:41:01.016Z,1.80
2022-12-23T01:43:49.202Z,2.30
2022-12-23T01:48:49.112Z,2.22
2022-12-23T01:51:20.538Z,2.47
2022-12-23T01:53:51.715Z,2.25
2022-12-23T01:56:36.217Z,2.40
2022-12-23T01:59:09.694Z,2.28
2022-12-23T02:01:55.103Z,2.13
2022-12-23T02:04:24.744Z,2.13
2022-12-23T02:07:10.688Z,1.75
2022-12-23T02:09:40.120Z,2.05
2022-12-23T02:12:30.789Z,2.25
2022-12-23T02:15:28.493Z,2.10
2022-12-23T02:18:11.759Z,2.28
2022-12-23T02:21:19.751Z,2.15
2022-12-23T02:24:04.409Z,2.08
2022-12-23T02:26:36.969Z,3.20
2022-12-23T02:29:31.591Z,2.42
2022-12-23T02:32:13.120Z,3.13
2022-12-23T02:35:04.775Z,3.30
2022-12-23T02:37:39.928Z,2.75
2022-12-23T02:40:14.441Z,3.53
2022-12-23T02:42:50.469Z,2.90
2022-12-23T02:45:21.838Z,3.88
2022-12-23T02:47:54.792Z,3.55
2022-12-23T02:50:28.189Z,3.97
2022-12-23T02:53:00.219Z,4.55
2022-12-23T02:55:32.697Z,3.88
2022-12-23T02:58:02.936Z,4.10
2022-12-23T03:00:30.878Z,3.88
2022-12-23T03:02:59.272Z,4.05
2022-12-23T03:05:42.803Z,4.20
2022-12-23T03:08:22.449Z,4.03
2022-12-23T03:11:14.489Z,4.45
2022-12-23T03:13:53.174Z,4.53
2022-12-23T03:16:29.666Z,4.32
2022-12-23T03:19:16.262Z,4.30
2022-12-23T03:22:19.491Z,5.22
2022-12-23T03:25:18.393Z,5.10
2022-12-23T03:28:29.491Z,4.32
2022-12-23T03:30:58.669Z,4.50
2022-12-23T03:33:35.447Z,4.80
2022-12-23T03:36:31.813Z,4.78
2022-12-23T03:39:00.562Z,3.85
2022-12-23T03:41:39.200Z,3.13
2022-12-23T03:44:13.252Z,3.50
2022-12-23T03:46:48.716Z,2.45
2022-12-23T03:49:23.186Z,3.25
2022-12-23T03:52:02.281Z,2.55
2022-12-23T03:54:42.504Z,3.17
2022-12-23T03:57:10.899Z,3.03
2022-12-23T03:59:42.592Z,3.17
2022-12-23T04:02:33.116Z,3.78
2022-12-23T04:05:28.077Z,4.00
2022-12-23T04:08:02.266Z,3.90
2022-12-23T04:10:30.247Z,5.20
2022-12-23T04:12:57.278Z,4.03
2022-12-23T04:15:26.668Z,4.97
2022-12-23T04:17:55.179Z,4.53
2022-12-23T04:20:22.073Z,5.15
2022-12-23T04:22:49.010Z,4.93
2022-12-23T04:25:16.919Z,5.68
2022-12-23T04:27:44.318Z,5.32
2022-12-23T04:32:41.572Z,5.18
2022-12-23T04:35:09.455Z,4.90
2022-12-23T04:37:36.461Z,4.53
2022-12-23T04:40:03.723Z,4.72
2022-12-23T04:42:30.622Z,4.18
2022-12-23T04:44:57.478Z,2.60
2022-12-23T04:47:24.278Z,4.57
2022-12-23T04:49:51.056Z,3.90
2022-12-23T04:52:17.890Z,2.85
2022-12-23T04:54:46.464Z,3.40
2022-12-23T04:57:13.877Z,3.47
2022-12-23T04:59:40.671Z,3.42
2022-12-23T05:02:08.038Z,3.00
2022-12-23T05:04:35.117Z,3.60
2022-12-23T05:07:01.950Z,2.42
2022-12-23T05:09:28.703Z,2.92
2022-12-23T05:11:55.483Z,2.80
2022-12-23T05:14:22.315Z,2.60
2022-12-23T05:16:49.202Z,3.45
2022-12-23T05:19:15.989Z,2.95
2022-12-23T05:21:42.755Z,2.70
2022-12-23T05:24:09.585Z,2.75
2022-12-23T05:26:36.360Z,1.67
2022-12-23T05:29:03.385Z,2.35
2022-12-23T05:31:30.230Z,1.85
2022-12-23T05:34:02.313Z,1.75
2022-12-23T05:36:32.639Z,1.70
2022-12-23T05:38:59.407Z,2.30
2022-12-23T05:41:26.212Z,1.88
2022-12-23T05:43:52.973Z,1.88
2022-12-23T05:46:25.901Z,2.20
2022-12-23T05:48:53.612Z,3.22
2022-12-23T05:51:20.460Z,2.60
2022-12-23T05:53:47.222Z,3.38
2022-12-23T05:56:14.072Z,2.63
2022-12-23T05:58:40.944Z,3.35
2022-12-23T06:01:07.850Z,2.38
2022-12-23T06:03:34.985Z,2.13
2022-12-23T06:06:01.995Z,2.97
2022-12-23T06:08:28.893Z,1.52
2022-12-23T06:10:55.717Z,1.33
2022-12-23T06:13:22.542Z,2.35
2022-12-23T06:15:49.363Z,1.88
2022-12-23T06:18:16.186Z,2.00
2022-12-23T06:20:47.029Z,2.63
2022-12-23T06:23:14.069Z,2.80
2022-12-23T06:25:40.948Z,3.13
2022-12-23T06:28:07.948Z,2.20
2022-12-23T06:30:35.050Z,3.47
2022-12-23T06:33:02.152Z,3.25
2022-12-23T06:35:28.900Z,3.70
2022-12-23T06:37:55.744Z,2.45
2022-12-23T06:40:22.603Z,3.00
2022-12-23T06:42:49.532Z,2.88
2022-12-23T06:45:16.419Z,2.83
2022-12-23T06:47:43.273Z,3.45
2022-12-23T06:50:10.469Z,3.83
2022-12-23T06:52:37.273Z,4.30
2022-12-23T06:55:04.404Z,3.55
2022-12-23T06:57:31.166Z,4.68
2022-12-23T06:59:57.920Z,3.22
2022-12-23T07:02:24.810Z,4.78
2022-12-23T07:04:51.667Z,5.88
2022-12-23T07:07:18.602Z,5.55
2022-12-23T07:09:45.377Z,3.28
2022-12-23T07:12:12.145Z,4.95
2022-12-23T07:14:38.943Z,3.63
2022-12-23T07:17:05.743Z,4.50
2022-12-23T07:19:32.539Z,2.67
2022-12-23T07:21:59.330Z,3.90
2022-12-23T07:24:26.094Z,3.25
2022-12-23T07:26:52.844Z,2.95
2022-12-23T07:29:19.583Z,3.70
2022-12-23T07:31:46.359Z,4.30
2022-12-23T07:34:13.164Z,2.92
2022-12-23T07:36:39.967Z,4.72
2022-12-23T07:39:06.837Z,3.47
2022-12-23T07:41:33.627Z,5.28
2022-12-23T07:44:06.832Z,5.20
2022-12-23T07:49:00.481Z,5.28
2022-12-23T07:51:27.293Z,5.30
2022-12-23T07:53:54.098Z,5.40
2022-12-23T07:56:21.026Z,5.85
2022-12-23T07:58:54.327Z,5.68
2022-12-23T08:01:21.544Z,5.15
2022-12-23T08:03:48.645Z,5.05
2022-12-23T08:06:16.830Z,5.25
2022-12-23T08:08:45.357Z,4.80
2022-12-23T08:11:14.004Z,5.25
2022-12-23T08:13:42.725Z,5.70
2022-12-23T08:16:11.096Z,4.45
2022-12-23T08:18:39.553Z,5.57
2022-12-23T08:21:13.044Z,6.35
2022-12-23T08:23:40.362Z,6.00
2022-12-23T08:26:08.964Z,5.40
2022-12-23T08:28:37.256Z,5.70
2022-12-23T08:31:12.999Z,5.18
2022-12-23T08:33:41.405Z,5.80
2022-12-23T08:36:10.292Z,5.65
2022-12-23T08:38:37.272Z,5.80
2022-12-23T08:41:08.238Z,6.78
2022-12-23T08:43:36.425Z,6.25
2022-12-23T08:46:04.157Z,5.38
2022-12-23T08:48:31.992Z,6.25
2022-12-23T08:51:04.219Z,6.22
2022-12-23T08:53:31.228Z,5.85
2022-12-23T08:56:03.826Z,6.75
2022-12-23T08:58:30.669Z,5.88
2022-12-23T09:00:57.910Z,6.28
2022-12-23T09:03:24.968Z,5.90
2022-12-23T09:05:51.792Z,6.70
2022-12-23T09:08:18.553Z,6.07
2022-12-23T09:10:45.332Z,5.63
2022-12-23T09:13:17.980Z,5.53
2022-12-23T09:15:49.261Z,5.32
2022-12-23T09:18:16.230Z,5.43
2022-12-23T09:20:43.074Z,5.13
2022-12-23T09:23:09.847Z,5.82
2022-12-23T09:25:37.073Z,5.47
2022-12-23T09:28:05.935Z,6.07
2022-12-23T09:30:33.049Z,6.00
2022-12-23T09:32:59.792Z,5.40
2022-12-23T09:35:26.622Z,4.97
2022-12-23T09:37:53.433Z,3.60
2022-12-23T09:40:21.610Z,4.20
2022-12-23T09:43:07.289Z,5.65
2022-12-23T09:45:42.606Z,5.63
2022-12-23T09:48:14.554Z,5.10
2022-12-23T09:50:42.419Z,5.60
2022-12-23T09:53:26.789Z,6.30
2022-12-23T09:56:15.509Z,5.68
2022-12-23T09:58:45.371Z,5.15
2022-12-23T10:01:33.156Z,5.70
2022-12-23T10:04:08.676Z,5.70
2022-12-23T10:06:38.499Z,5.78
2022-12-23T10:09:07.371Z,6.45
2022-12-23T10:11:43.716Z,6.10
2022-12-23T10:14:19.500Z,6.03
2022-12-23T10:16:51.788Z,6.07
2022-12-23T10:19:30.171Z,5.70
2022-12-23T10:22:02.150Z,6.18
2022-12-23T10:24:36.398Z,5.82
2022-12-23T10:27:43.530Z,5.93
2022-12-23T10:30:34.132Z,6.53
2022-12-23T10:33:16.003Z,6.18
2022-12-23T10:36:05.340Z,6.32
2022-12-23T10:39:01.326Z,6.05
2022-12-23T10:41:42.337Z,4.03
2022-12-23T10:44:22.750Z,6.10
2022-12-23T10:46:52.571Z,6.45
2022-12-23T10:49:28.888Z,6.13
2022-12-23T10:51:59.685Z,5.88
2022-12-23T10:54:34.634Z,5.80
2022-12-23T10:57:03.184Z,5.90
2022-12-23T10:59:32.544Z,5.93
2022-12-23T11:02:11.805Z,5.57
2022-12-23T11:04:47.559Z,4.75
2022-12-23T11:07:44.092Z,4.50
2022-12-23T11:10:32.716Z,5.45
2022-12-23T11:13:00.736Z,4.95
2022-12-23T11:15:32.613Z,5.00
2022-12-23T11:18:16.224Z,3.97
2022-12-23T11:24:14.284Z,3.67
2022-12-23T11:26:41.840Z,3.58
2022-12-23T11:31:44.289Z,3.25
2022-12-23T11:34:20.483Z,3.92
2022-12-23T11:37:03.578Z,3.22
2022-12-23T11:39:39.008Z,3.63
2022-12-23T11:42:16.935Z,3.90
2022-12-23T11:44:50.523Z,4.53
2022-12-23T11:47:41.175Z,3.38
2022-12-23T11:50:21.001Z,2.95
2022-12-23T11:52:55.246Z,3.20
2022-12-23T11:55:33.477Z,3.42
2022-12-23T11:58:18.539Z,3.78
2022-12-23T12:01:06.724Z,4.30
2022-12-23T12:03:42.886Z,4.35
2022-12-23T12:06:17.729Z,3.33
2022-12-23T12:08:50.806Z,4.47
2022-12-23T12:11:26.515Z,4.25
2022-12-23T12:14:03.337Z,4.20
2022-12-23T12:16:39.874Z,3.97
2022-12-23T12:19:36.829Z,4.38
2022-12-23T12:22:12.513Z,3.58
2022-12-23T12:24:44.762Z,4.28
2022-12-23T12:27:12.271Z,3.95
2022-12-23T12:29:41.671Z,3.83
2022-12-23T12:32:57.892Z,4.38
2022-12-23T12:38:24.854Z,3.13
2022-12-23T12:41:01.172Z,2.92
2022-12-23T12:43:35.921Z,2.83
2022-12-23T12:46:19.190Z,3.42
2022-12-23T12:48:59.860Z,3.20
2022-12-23T12:51:59.486Z,3.42
2022-12-23T12:54:39.921Z,3.15
2022-12-23T12:57:15.155Z,3.20
2022-12-23T12:59:43.593Z,4.38
2022-12-23T13:02:42.781Z,3.50
2022-12-23T13:05:33.572Z,8.57
2022-12-23T13:08:37.974Z,8.30
2022-12-23T13:11:46.004Z,5.60
2022-12-23T13:14:19.265Z,3.50
2022-12-23T13:17:10.481Z,4.45
2022-12-23T13:19:40.524Z,3.38
2022-12-23T13:22:11.219Z,3.17
2022-12-23T13:24:59.665Z,2.55
2022-12-23T13:28:04.077Z,2.75
2022-12-23T13:30:39.706Z,2.55
2022-12-23T13:33:12.693Z,3.15
2022-12-23T13:36:06.417Z,3.17
2022-12-23T13:39:03.262Z,2.90
2022-12-23T13:41:44.628Z,2.50
2022-12-23T13:44:14.283Z,2.90
2022-12-23T13:46:55.872Z,2.55
2022-12-23T13:49:44.911Z,2.22
2022-12-23T13:52:24.487Z,2.10
2022-12-23T13:55:21.975Z,2.03
2022-12-23T13:58:19.147Z,2.03
2022-12-23T14:01:20.786Z,1.65
2022-12-23T14:03:49.863Z,1.58
2022-12-23T14:06:46.096Z,1.38
2022-12-23T14:09:17.271Z,1.38
2022-12-23T14:11:45.481Z,1.38
2022-12-23T14:14:24.160Z,1.27
2022-12-23T14:17:22.116Z,1.27
2022-12-23T14:20:28.023Z,1.38
2022-12-23T14:23:23.066Z,1.40
2022-12-23T14:26:07.016Z,1.17
2022-12-23T14:28:54.386Z,1.10
2022-12-23T14:31:32.569Z,1.30
2022-12-23T14:34:27.901Z,1.38
2022-12-23T14:37:17.846Z,1.27
2022-12-23T14:39:45.135Z,1.45
2022-12-23T14:42:16.615Z,1.15
2022-12-23T14:44:46.643Z,1.55
2022-12-23T14:47:40.341Z,1.15
2022-12-23T14:50:35.270Z,1.15
2022-12-23T14:53:05.339Z,1.00
2022-12-23T14:55:33.099Z,1.20
2022-12-23T14:58:14.482Z,1.55
2022-12-23T15:00:50.825Z,1.23
2022-12-23T15:03:20.183Z,0.83
2022-12-23T15:05:47.473Z,1.20
2022-12-23T15:08:43.317Z,1.35
2022-12-23T15:11:29.538Z,0.90
2022-12-23T15:14:01.925Z,0.90
2022-12-23T15:16:36.735Z,1.10
2022-12-23T15:19:24.867Z,1.10
2022-12-23T15:22:15.309Z,1.38
2022-12-23T15:24:48.000Z,1.30
2022-12-23T15:27:28.825Z,1.80
2022-12-23T15:29:58.674Z,0.88
2022-12-23T15:32:27.500Z,1.15
2022-12-23T15:35:03.576Z,1.00
2022-12-23T15:37:31.374Z,0.98
2022-12-23T15:40:06.499Z,0.90
2022-12-23T15:42:38.215Z,0.80
2022-12-23T15:45:23.216Z,1.00
2022-12-23T15:47:50.731Z,0.77
2022-12-23T15:52:48.539Z,0.80
2022-12-23T15:55:25.156Z,0.88
2022-12-23T15:57:52.769Z,0.90
2022-12-23T16:00:22.528Z,1.40
2022-12-23T16:03:01.879Z,1.00
2022-12-23T16:05:35.658Z,1.20
2022-12-23T16:08:10.598Z,0.90
2022-12-23T16:10:38.076Z,1.25
2022-12-23T16:15:33.347Z,1.45
2022-12-23T16:18:25.414Z,1.50
2022-12-23T16:21:00.638Z,1.70
2022-12-23T16:23:33.337Z,1.67
2022-12-23T16:26:01.802Z,1.95
2022-12-23T16:28:40.915Z,1.70
2022-12-23T16:31:10.383Z,1.92
2022-12-23T16:33:48.812Z,1.98
2022-12-23T16:36:19.874Z,1.77
2022-12-23T16:38:48.134Z,2.17
2022-12-23T16:41:15.028Z,2.00
2022-12-23T16:43:49.420Z,2.20
2022-12-23T16:46:20.883Z,1.95
2022-12-23T16:48:52.904Z,1.60
2022-12-23T16:51:23.326Z,2.25
2022-12-23T16:53:52.714Z,2.40
2022-12-23T16:56:21.365Z,2.08
2022-12-23T16:58:48.498Z,2.28
2022-12-23T17:01:21.817Z,2.40
2022-12-23T17:03:48.949Z,2.38
2022-12-23T17:06:17.261Z,2.22
2022-12-23T17:08:44.332Z,2.08
2022-12-23T17:11:28.949Z,1.50
2022-12-23T17:14:03.322Z,1.50
2022-12-23T17:16:32.022Z,1.60
2022-12-23T17:18:58.921Z,1.60
2022-12-23T17:21:38.998Z,1.17
2022-12-23T17:24:26.208Z,1.15
2022-12-23T17:26:54.165Z,1.65
2022-12-23T17:29:20.995Z,1.20
2022-12-23T17:31:48.512Z,1.55
2022-12-23T17:34:23.297Z,1.42
2022-12-23T17:36:51.131Z,1.38
2022-12-23T17:39:19.436Z,1.23
2022-12-23T17:41:46.302Z,1.20
2022-12-23T17:44:15.409Z,1.17
2022-12-23T17:46:42.496Z,1.30
2022-12-23T17:49:09.264Z,1.10
2022-12-23T17:51:36.324Z,1.50
2022-12-23T17:54:04.753Z,1.58
2022-12-23T17:56:32.067Z,1.30
2022-12-23T17:58:58.863Z,1.30
2022-12-23T18:01:29.636Z,1.25
2022-12-23T18:03:58.291Z,1.10
2022-12-23T18:06:27.579Z,1.30
2022-12-23T18:08:54.509Z,1.30
2022-12-23T18:11:23.646Z,1.70
2022-12-23T18:13:52.567Z,1.63
2022-12-23T18:16:19.877Z,1.60
2022-12-23T18:21:21.072Z,1.98
2022-12-23T18:23:47.952Z,1.30
2022-12-23T18:26:15.380Z,1.45
2022-12-23T18:31:17.446Z,1.50
2022-12-23T18:33:44.430Z,1.60
2022-12-23T18:36:25.065Z,1.52
2022-12-23T18:38:52.538Z,1.50
2022-12-23T18:43:47.307Z,1.48
2022-12-23T18:46:14.323Z,1.95
2022-12-23T18:48:41.197Z,2.40
2022-12-23T18:51:14.497Z,2.13
2022-12-23T18:53:41.584Z,2.20
2022-12-23T18:56:13.327Z,2.13
2022-12-23T18:58:40.155Z,1.65
2022-12-23T19:01:11.809Z,2.15
2022-12-23T19:03:38.713Z,2.05
2022-12-23T19:06:07.640Z,2.10
2022-12-23T19:08:35.943Z,1.80
2022-12-23T19:11:12.897Z,2.58
2022-12-23T19:13:40.056Z,1.70
2022-12-23T19:16:07.089Z,2.13
2022-12-23T19:18:33.943Z,2.17
2022-12-23T19:21:04.178Z,1.50
2022-12-23T19:23:31.011Z,2.42
2022-12-23T19:25:57.789Z,2.30
2022-12-23T19:28:24.758Z,1.73
2022-12-23T19:30:51.627Z,2.42
2022-12-23T19:33:18.443Z,3.00
2022-12-23T19:35:45.231Z,2.35
2022-12-23T19:38:12.360Z,2.53
2022-12-23T19:43:06.409Z,2.30
2022-12-23T19:45:33.183Z,3.08
2022-12-23T19:47:59.950Z,2.08
2022-12-23T19:50:27.160Z,2.30
2022-12-23T19:52:56.035Z,2.63
2022-12-23T19:55:23.003Z,2.63
2022-12-23T19:57:49.812Z,2.30
2022-12-23T20:00:16.650Z,2.50
2022-12-23T20:02:43.482Z,2.65
2022-12-23T20:05:10.432Z,2.08
2022-12-23T20:07:37.803Z,2.47
2022-12-23T20:12:32.143Z,3.08
2022-12-23T20:14:58.953Z,2.33
2022-12-23T20:17:25.773Z,3.00
2022-12-23T20:19:52.523Z,2.45
2022-12-23T20:22:19.320Z,2.47
2022-12-23T20:24:46.100Z,1.65
2022-12-23T20:27:15.744Z,2.63
2022-12-23T20:29:42.824Z,2.67
2022-12-23T20:32:10.041Z,1.88
2022-12-23T20:34:40.027Z,2.03
2022-12-23T20:37:07.634Z,2.63
2022-12-23T20:39:34.788Z,2.10
2022-12-23T20:42:01.581Z,2.33
2022-12-23T20:44:36.996Z,2.40
2022-12-23T20:47:05.926Z,3.40
2022-12-23T20:49:33.325Z,2.83
2022-12-23T20:52:00.193Z,2.50
2022-12-23T20:54:32.781Z,3.05
2022-12-23T20:57:01.163Z,2.78
2022-12-23T20:59:28.031Z,2.42
2022-12-23T21:01:55.130Z,1.50
2022-12-23T21:04:22.617Z,2.67
2022-12-23T21:09:16.700Z,2.30
2022-12-23T21:11:45.824Z,1.75
2022-12-23T21:14:14.350Z,1.98
2022-12-23T21:16:41.814Z,2.53
2022-12-23T21:21:39.611Z,2.40
2022-12-23T21:24:06.670Z,2.63
2022-12-23T21:26:34.906Z,2.60
2022-12-23T21:29:04.714Z,3.00
2022-12-23T21:31:33.968Z,2.83
2022-12-23T21:34:01.245Z,2.08
2022-12-23T21:36:31.063Z,3.58
2022-12-23T21:38:58.784Z,2.67
2022-12-23T21:41:28.808Z,3.30
2022-12-23T21:44:00.118Z,2.20
2022-12-23T21:46:28.190Z,3.38
2022-12-23T21:48:56.411Z,2.70
2022-12-23T21:51:30.368Z,2.50
2022-12-23T21:54:01.763Z,3.22
2022-12-23T21:56:31.093Z,1.90
2022-12-23T21:59:00.393Z,3.10
2022-12-23T22:01:28.047Z,2.67
2022-12-23T22:03:55.881Z,2.33
2022-12-23T22:06:28.143Z,2.35
2022-12-23T22:08:55.556Z,2.95
2022-12-23T22:13:56.278Z,2.50
2022-12-23T22:16:24.817Z,2.78
2022-12-23T22:18:52.316Z,3.15
2022-12-23T22:23:48.622Z,2.33
2022-12-23T22:26:24.206Z,2.92
2022-12-23T22:28:53.985Z,2.55
2022-12-23T22:31:32.202Z,2.40
2022-12-23T22:33:59.478Z,2.03
2022-12-23T22:36:26.635Z,2.30
2022-12-23T22:38:55.993Z,2.83
2022-12-23T22:41:23.506Z,2.67
2022-12-23T22:43:50.548Z,1.85
2022-12-23T22:46:18.273Z,3.17
2022-12-23T22:48:45.602Z,2.55
2022-12-23T22:51:17.790Z,2.88
2022-12-23T22:53:45.342Z,2.20
2022-12-23T22:56:14.037Z,2.58
2022-12-23T22:58:41.274Z,2.30
2022-12-23T23:01:25.254Z,2.47
2022-12-23T23:03:59.620Z,2.72
2022-12-23T23:06:28.756Z,3.42
2022-12-23T23:08:56.213Z,3.13
2022-12-23T23:13:50.605Z,3.58
2022-12-23T23:16:17.737Z,3.08
2022-12-23T23:18:44.644Z,3.17
2022-12-23T23:21:12.908Z,2.58
2022-12-23T23:23:39.694Z,2.60
2022-12-23T23:26:08.560Z,2.33
2022-12-23T23:28:35.996Z,2.53
2022-12-23T23:33:49.448Z,2.65
2022-12-23T23:36:16.328Z,2.30
2022-12-23T23:38:43.112Z,2.08
2022-12-23T23:41:09.855Z,2.15
2022-12-23T23:43:36.681Z,2.28
2022-12-23T23:46:03.533Z,1.90
2022-12-23T23:48:30.336Z,2.22
2022-12-23T23:51:05.834Z,1.50
2022-12-23T23:53:32.692Z,3.03
2022-12-23T23:56:05.046Z,1.65
2022-12-23T23:58:31.967Z,1.90
